Terminal Aerodrome Forecast
Issued by NWS Raleigh/Durham, NC

Home | Current Version | Previous Version | Text Only | Print | Product List | Glossary On
Versions: 1 2 3 4 5 6 7 8 9 10 11 12 13 14 15 16 17 18 19 20 21 22 23 24 25 26 27 28 29 30 31 32
000
FTUS42 KRAH 231740
TAFGSO
TAF
KGSO 231740Z 2318/2418 16015G25KT P6SM BKN015
     FM232100 19020G30KT P6SM BKN025
      TEMPO 2322/2402 VRB20G45KT 1SM TSRA OVC005CB
     FM240300 21007KT P6SM BKN080
     FM240900 24003KT 3SM BR BKN005
     FM241300 24005KT P6SM SKC=

USA.gov is the U.S. government's official web portal to all federal, state and local government web resources and services.